Scout — WCZ5277 — position and weather

sailwx.info

Track history (hours):
 
Tides and Currents Weather Stations Pressure Air Temp Water Temp Dewpoint Dewpoint Depression Visibility Wind Speed Wind Dir Waves Ship Positions

Scout

Owner: ERGON MARINE & INDUSTRIAL SUPPLY, VICKSBURG, MS. More information available from US FCC via Universal Licensing System.

Last reported at 2017-Oct-18 10:58 UTC. Time now 2017-Oct-18 16:33 UTC.
Position N 32°20' W 090°54'.

Length 14 m.

Type: Towing. MMSI: 367402890.

Date/timePositionNaut miles runAvg speedWind from/ knotsBaromVisibWave heightAir tempDewpointWater temp
2017-Oct-18 10:58N 32°20' W 090°54'3 6.9
2017-Oct-18 10:30N 32°22' W 090°52'1 2.4
2017-Oct-18 10:00N 32°23' W 090°54'0 0.4
2017-Oct-18 09:30N 32°23' W 090°54'0 0.4
2017-Oct-18 09:00N 32°23' W 090°54'1 1.4
2017-Oct-18 08:30N 32°23' W 090°53'1 2.2
2017-Oct-18 08:00N 32°22' W 090°53'2 3.0
2017-Oct-18 07:30N 32°21' W 090°53'1 1.4
2017-Oct-18 07:00N 32°20' W 090°54'1 1.4
2017-Oct-18 06:30N 32°21' W 090°53'0 0.0
2017-Oct-18 06:00N 32°21' W 090°53'0 0.0
2017-Oct-18 05:30N 32°21' W 090°53'0 0.0
2017-Oct-18 05:00N 32°21' W 090°53'0 0.0
2017-Oct-18 04:30N 32°21' W 090°53'0 0.0
2017-Oct-18 04:00N 32°21' W 090°53'0 0.0
2017-Oct-18 03:30N 32°21' W 090°53'0 0.0
2017-Oct-18 03:00N 32°21' W 090°53'0 0.0
2017-Oct-18 02:30N 32°21' W 090°53'0 0.0
2017-Oct-18 02:00N 32°21' W 090°53'0 0.0
2017-Oct-18 01:30N 32°21' W 090°53'0 0.0
2017-Oct-18 01:00N 32°21' W 090°53'0 0.0
2017-Oct-18 00:30N 32°21' W 090°53'1 1.6
2017-Oct-18 00:00N 32°20' W 090°54'0 0.0
2017-Oct-16 22:31N 32°20' W 090°54'0 1.7
2017-Oct-16 22:30N 32°20' W 090°54'1 1.7
2017-Oct-16 22:00N 32°20' W 090°54'2 3.7
2017-Oct-16 21:30N 32°22' W 090°53'2 4.9
2017-Oct-16 21:00N 32°24' W 090°55'1 1.5
2017-Oct-16 20:30N 32°23' W 090°54'2 3.0
2017-Oct-16 20:00N 32°23' W 090°53'1 1.5
2017-Oct-16 19:30N 32°23' W 090°53'1 3.0
2017-Oct-16 19:00N 32°22' W 090°53'0 0.4
2017-Oct-16 18:30N 32°22' W 090°53'1 2.2
2017-Oct-16 18:00N 32°21' W 090°53'0 0.0
2017-Oct-16 17:30N 32°21' W 090°53'1 1.5
2017-Oct-16 17:00N 32°20' W 090°54'3 6.2
2017-Oct-16 16:30N 32°23' W 090°53'0 0.7
2017-Oct-16 16:00N 32°23' W 090°53'0 0.6
2017-Oct-16 15:30N 32°23' W 090°53'0 0.7
2017-Oct-16 15:00N 32°23' W 090°53'0 0.1
2017-Oct-16 14:00N 32°23' W 090°53'0 0.6
2017-Oct-16 13:30N 32°23' W 090°53'0 0.0
2017-Oct-16 13:00N 32°23' W 090°53'1 1.2
2017-Oct-16 12:30N 32°22' W 090°52'3 5.9
2017-Oct-16 12:00N 32°20' W 090°54'0 0.3
2017-Oct-16 11:30N 32°20' W 090°54'0 0.0
2017-Oct-15 22:03N 32°20' W 090°54'0 6.1
2017-Oct-15 22:00N 32°20' W 090°54'3 6.0
2017-Oct-15 21:30N 32°23' W 090°52'1 2.0
2017-Oct-15 21:00N 32°23' W 090°53'0 0.1
2017-Oct-15 20:30N 32°23' W 090°53'0 0.0
2017-Oct-15 20:00N 32°23' W 090°53'0 0.0
2017-Oct-15 19:30N 32°23' W 090°53'0 0.0
2017-Oct-15 19:00N 32°23' W 090°53'0 0.0
2017-Oct-15 18:30N 32°23' W 090°53'0 0.0
2017-Oct-15 18:00N 32°23' W 090°53'0 0.0
2017-Oct-15 17:30N 32°23' W 090°53'0 0.0
2017-Oct-15 17:00N 32°23' W 090°53'0 0.0
2017-Oct-15 16:30N 32°23' W 090°53'0 0.0
2017-Oct-15 16:00N 32°23' W 090°53'0 0.0
2017-Oct-15 15:30N 32°23' W 090°53'1 2.7
2017-Oct-15 15:00N 32°22' W 090°53'1 1.3
2017-Oct-15 14:00N 32°23' W 090°53'0 0.0
2017-Oct-15 13:30N 32°23' W 090°53'0 0.1
2017-Oct-15 13:00N 32°23' W 090°53'0 0.5
2017-Oct-15 12:30N 32°23' W 090°54'2 3.4
2017-Oct-15 12:00N 32°22' W 090°53'2 0.2
2017-Oct-15 02:51N 32°20' W 090°54'2 6.4
2017-Oct-15 02:31N 32°22' W 090°53'2 3.6
2017-Oct-15 02:00N 32°23' W 090°54'0 0.0
2017-Oct-15 01:31N 32°23' W 090°54'1 1.4
2017-Oct-15 01:01N 32°23' W 090°53'2 3.5
2017-Oct-15 00:31N 32°21' W 090°53'1 1.5
2017-Oct-15 00:01N 32°21' W 090°53'1 1.3
2017-Oct-14 23:00N 32°20' W 090°54'2 4.6
2017-Oct-14 22:30N 32°22' W 090°53'1 2.1
2017-Oct-14 22:00N 32°23' W 090°54'2 3.5
2017-Oct-14 21:30N 32°24' W 090°55'0 0.5
2017-Oct-14 21:00N 32°24' W 090°55'0 0.0
2017-Oct-14 20:30N 32°24' W 090°55'2 4.6
2017-Oct-14 20:00N 32°22' W 090°53'1 2.3
2017-Oct-14 19:30N 32°23' W 090°53'0 0.4
2017-Oct-14 19:00N 32°23' W 090°53'1 2.8
2017-Oct-14 18:30N 32°22' W 090°53'1 2.8
2017-Oct-14 18:00N 32°21' W 090°53'2 3.3
2017-Oct-14 17:30N 32°21' W 090°55'2 3.4
2017-Oct-14 17:00N 32°21' W 090°57'0 0.1
2017-Oct-14 16:30N 32°21' W 090°57'0 0.2
2017-Oct-14 16:00N 32°21' W 090°57'2 4.5
2017-Oct-14 15:30N 32°21' W 090°55'1 1.8
2017-Oct-14 15:00N 32°20' W 090°54'1 1.1
2017-Oct-14 14:30N 32°21' W 090°53'2 4.6
2017-Oct-14 14:00N 32°23' W 090°53'0 0.2
2017-Oct-14 13:30N 32°23' W 090°53'1 2.5
2017-Oct-14 13:00N 32°22' W 090°53'2 3.7
2017-Oct-14 12:30N 32°20' W 090°54'1 1.5
2017-Oct-14 12:00N 32°20' W 090°54'0 0.0
2017-Oct-14 11:30N 32°20' W 090°54'3 5.6
2017-Oct-14 11:00N 32°22' W 090°53'0 0.6
2017-Oct-14 10:30N 32°22' W 090°53'1 2.6
2017-Oct-14 10:00N 32°21' W 090°53'1 1.7
2017-Oct-14 09:30N 32°20' W 090°54'1 2.8
2017-Oct-14 09:00N 32°21' W 090°53'1 2.2
2017-Oct-14 08:30N 32°22' W 090°53'1 1.5
2017-Oct-14 08:00N 32°22' W 090°53'2 3.1
2017-Oct-14 07:30N 32°21' W 090°53'1 1.4
2017-Oct-14 07:00N 32°20' W 090°54'2 3.3
2017-Oct-14 06:30N 32°21' W 090°56'1 1.9
2017-Oct-14 06:01N 32°21' W 090°57'0 0.2
2017-Oct-14 05:31N 32°21' W 090°57'1 2.8
2017-Oct-14 05:00N 32°21' W 090°55'  
2017-Oct-11 18:25N 32°20' W 090°54'0 0.7
2017-Oct-11 18:00N 32°20' W 090°54'0 0.8
2017-Oct-11 17:30N 32°20' W 090°54'0 0.0
2017-Oct-11 17:00N 32°20' W 090°54'0 0.0
2017-Oct-11 00:00N 32°20' W 090°54'0 0.2
2017-Oct-10 23:30N 32°20' W 090°54'0 0.0
2017-Oct-10 10:58N 32°20' W 090°54'3 7.4
2017-Oct-10 10:30N 32°23' W 090°53'1 1.4
2017-Oct-10 10:00N 32°23' W 090°53'0 0.0
2017-Oct-10 09:30N 32°23' W 090°53'0 0.0
2017-Oct-10 09:00N 32°23' W 090°53'0 0.0
2017-Oct-10 08:30N 32°23' W 090°53'0 0.0
2017-Oct-10 08:00N 32°23' W 090°53'0 0.9
2017-Oct-10 07:30N 32°23' W 090°54'1 1.8
2017-Oct-10 07:00N 32°23' W 090°53'2 3.0
2017-Oct-10 06:30N 32°21' W 090°53'0 0.4
2017-Oct-10 06:00N 32°21' W 090°53'0 0.0
2017-Oct-10 05:30N 32°21' W 090°53'0 0.0
2017-Oct-10 05:00N 32°21' W 090°53'0 0.0
2017-Oct-10 04:30N 32°21' W 090°53'1 1.5
2017-Oct-10 04:00N 32°21' W 090°53'1 2.3
2017-Oct-10 03:30N 32°20' W 090°54'0 0.0
2017-Oct-10 03:00N 32°20' W 090°54'0 0.0
2017-Oct-10 02:30N 32°20' W 090°54'0 0.0
2017-Oct-10 02:00N 32°20' W 090°54'2 3.5
2017-Oct-10 01:30N 32°18' W 090°55'0 0.2
2017-Oct-10 01:00N 32°18' W 090°55'0 0.0
2017-Oct-10 00:30N 32°18' W 090°55'0 0.0
2017-Oct-10 00:00N 32°18' W 090°55'2 3.3
2017-Oct-09 23:30N 32°20' W 090°54'0 0.0
2017-Oct-09 11:07N 32°20' W 090°54'1 5.8
2017-Oct-09 11:00N 32°20' W 090°54'1 2.0
2017-Oct-09 10:30N 32°21' W 090°53'2 4.8
2017-Oct-09 10:00N 32°19' W 090°54'1 1.9
2017-Oct-09 09:30N 32°18' W 090°55'2 3.9
2017-Oct-09 09:00N 32°20' W 090°54'2 3.8
2017-Oct-09 08:30N 32°22' W 090°53'0 0.1
2017-Oct-09 08:00N 32°22' W 090°53'0 0.0
2017-Oct-09 07:30N 32°22' W 090°53'0 0.0
2017-Oct-09 07:00N 32°22' W 090°53'0 0.0
2017-Oct-09 06:30N 32°22' W 090°53'0 0.0
2017-Oct-09 06:00N 32°22' W 090°53'0 0.0
2017-Oct-09 05:30N 32°22' W 090°53'0 0.0
2017-Oct-09 05:00N 32°22' W 090°53'0 0.1
2017-Oct-09 04:30N 32°22' W 090°53'2 3.0
2017-Oct-09 04:00N 32°20' W 090°54'  
Track history (hours):
 
Tides and Currents Weather Stations Pressure Air Temp Water Temp Dewpoint Dewpoint Depression Visibility Wind Speed Wind Dir Waves Ship Positions

Scout

Owner: ERGON MARINE & INDUSTRIAL SUPPLY, VICKSBURG, MS. More information available from US FCC via Universal Licensing System.

Last reported at 2017-Oct-18 10:58 UTC. Time now 2017-Oct-18 16:33 UTC.
Position N 32°20' W 090°54'.

Length 14 m.

Type: Towing. MMSI: 367402890.

Date/timePositionNaut miles runAvg speedWind from/ knotsBaromVisibWave heightAir tempDewpointWater temp
2017-Oct-18 10:58N 32°20' W 090°54'3 6.9
2017-Oct-18 10:30N 32°22' W 090°52'1 2.4
2017-Oct-18 10:00N 32°23' W 090°54'0 0.4
2017-Oct-18 09:30N 32°23' W 090°54'0 0.4
2017-Oct-18 09:00N 32°23' W 090°54'1 1.4
2017-Oct-18 08:30N 32°23' W 090°53'1 2.2
2017-Oct-18 08:00N 32°22' W 090°53'2 3.0
2017-Oct-18 07:30N 32°21' W 090°53'1 1.4
2017-Oct-18 07:00N 32°20' W 090°54'1 1.4
2017-Oct-18 06:30N 32°21' W 090°53'0 0.0
2017-Oct-18 06:00N 32°21' W 090°53'0 0.0
2017-Oct-18 05:30N 32°21' W 090°53'0 0.0
2017-Oct-18 05:00N 32°21' W 090°53'0 0.0
2017-Oct-18 04:30N 32°21' W 090°53'0 0.0
2017-Oct-18 04:00N 32°21' W 090°53'0 0.0
2017-Oct-18 03:30N 32°21' W 090°53'0 0.0
2017-Oct-18 03:00N 32°21' W 090°53'0 0.0
2017-Oct-18 02:30N 32°21' W 090°53'0 0.0
2017-Oct-18 02:00N 32°21' W 090°53'0 0.0
2017-Oct-18 01:30N 32°21' W 090°53'0 0.0
2017-Oct-18 01:00N 32°21' W 090°53'0 0.0
2017-Oct-18 00:30N 32°21' W 090°53'1 1.6
2017-Oct-18 00:00N 32°20' W 090°54'0 0.0
2017-Oct-16 22:31N 32°20' W 090°54'0 1.7
2017-Oct-16 22:30N 32°20' W 090°54'1 1.7
2017-Oct-16 22:00N 32°20' W 090°54'2 3.7
2017-Oct-16 21:30N 32°22' W 090°53'2 4.9
2017-Oct-16 21:00N 32°24' W 090°55'1 1.5
2017-Oct-16 20:30N 32°23' W 090°54'2 3.0
2017-Oct-16 20:00N 32°23' W 090°53'1 1.5
2017-Oct-16 19:30N 32°23' W 090°53'1 3.0
2017-Oct-16 19:00N 32°22' W 090°53'0 0.4
2017-Oct-16 18:30N 32°22' W 090°53'1 2.2
2017-Oct-16 18:00N 32°21' W 090°53'0 0.0
2017-Oct-16 17:30N 32°21' W 090°53'1 1.5
2017-Oct-16 17:00N 32°20' W 090°54'3 6.2
2017-Oct-16 16:30N 32°23' W 090°53'0 0.7
2017-Oct-16 16:00N 32°23' W 090°53'0 0.6
2017-Oct-16 15:30N 32°23' W 090°53'0 0.7
2017-Oct-16 15:00N 32°23' W 090°53'0 0.1
2017-Oct-16 14:00N 32°23' W 090°53'0 0.6
2017-Oct-16 13:30N 32°23' W 090°53'0 0.0
2017-Oct-16 13:00N 32°23' W 090°53'1 1.2
2017-Oct-16 12:30N 32°22' W 090°52'3 5.9
2017-Oct-16 12:00N 32°20' W 090°54'0 0.3
2017-Oct-16 11:30N 32°20' W 090°54'0 0.0
2017-Oct-15 22:03N 32°20' W 090°54'0 6.1
2017-Oct-15 22:00N 32°20' W 090°54'3 6.0
2017-Oct-15 21:30N 32°23' W 090°52'1 2.0
2017-Oct-15 21:00N 32°23' W 090°53'0 0.1
2017-Oct-15 20:30N 32°23' W 090°53'0 0.0
2017-Oct-15 20:00N 32°23' W 090°53'0 0.0
2017-Oct-15 19:30N 32°23' W 090°53'0 0.0
2017-Oct-15 19:00N 32°23' W 090°53'0 0.0
2017-Oct-15 18:30N 32°23' W 090°53'0 0.0
2017-Oct-15 18:00N 32°23' W 090°53'0 0.0
2017-Oct-15 17:30N 32°23' W 090°53'0 0.0
2017-Oct-15 17:00N 32°23' W 090°53'0 0.0
2017-Oct-15 16:30N 32°23' W 090°53'0 0.0
2017-Oct-15 16:00N 32°23' W 090°53'0 0.0
2017-Oct-15 15:30N 32°23' W 090°53'1 2.7
2017-Oct-15 15:00N 32°22' W 090°53'1 1.3
2017-Oct-15 14:00N 32°23' W 090°53'0 0.0
2017-Oct-15 13:30N 32°23' W 090°53'0 0.1
2017-Oct-15 13:00N 32°23' W 090°53'0 0.5
2017-Oct-15 12:30N 32°23' W 090°54'2 3.4
2017-Oct-15 12:00N 32°22' W 090°53'2 0.2
2017-Oct-15 02:51N 32°20' W 090°54'2 6.4
2017-Oct-15 02:31N 32°22' W 090°53'2 3.6
2017-Oct-15 02:00N 32°23' W 090°54'0 0.0
2017-Oct-15 01:31N 32°23' W 090°54'1 1.4
2017-Oct-15 01:01N 32°23' W 090°53'2 3.5
2017-Oct-15 00:31N 32°21' W 090°53'1 1.5
2017-Oct-15 00:01N 32°21' W 090°53'1 1.3
2017-Oct-14 23:00N 32°20' W 090°54'2 4.6
2017-Oct-14 22:30N 32°22' W 090°53'1 2.1
2017-Oct-14 22:00N 32°23' W 090°54'2 3.5
2017-Oct-14 21:30N 32°24' W 090°55'0 0.5
2017-Oct-14 21:00N 32°24' W 090°55'0 0.0
2017-Oct-14 20:30N 32°24' W 090°55'2 4.6
2017-Oct-14 20:00N 32°22' W 090°53'1 2.3
2017-Oct-14 19:30N 32°23' W 090°53'0 0.4
2017-Oct-14 19:00N 32°23' W 090°53'1 2.8
2017-Oct-14 18:30N 32°22' W 090°53'1 2.8
2017-Oct-14 18:00N 32°21' W 090°53'2 3.3
2017-Oct-14 17:30N 32°21' W 090°55'2 3.4
2017-Oct-14 17:00N 32°21' W 090°57'0 0.1
2017-Oct-14 16:30N 32°21' W 090°57'0 0.2
2017-Oct-14 16:00N 32°21' W 090°57'2 4.5
2017-Oct-14 15:30N 32°21' W 090°55'1 1.8
2017-Oct-14 15:00N 32°20' W 090°54'1 1.1
2017-Oct-14 14:30N 32°21' W 090°53'2 4.6
2017-Oct-14 14:00N 32°23' W 090°53'0 0.2
2017-Oct-14 13:30N 32°23' W 090°53'1 2.5
2017-Oct-14 13:00N 32°22' W 090°53'2 3.7
2017-Oct-14 12:30N 32°20' W 090°54'1 1.5
2017-Oct-14 12:00N 32°20' W 090°54'0 0.0
2017-Oct-14 11:30N 32°20' W 090°54'3 5.6
2017-Oct-14 11:00N 32°22' W 090°53'0 0.6
2017-Oct-14 10:30N 32°22' W 090°53'1 2.6
2017-Oct-14 10:00N 32°21' W 090°53'1 1.7
2017-Oct-14 09:30N 32°20' W 090°54'1 2.8
2017-Oct-14 09:00N 32°21' W 090°53'1 2.2
2017-Oct-14 08:30N 32°22' W 090°53'1 1.5
2017-Oct-14 08:00N 32°22' W 090°53'2 3.1
2017-Oct-14 07:30N 32°21' W 090°53'1 1.4
2017-Oct-14 07:00N 32°20' W 090°54'2 3.3
2017-Oct-14 06:30N 32°21' W 090°56'1 1.9
2017-Oct-14 06:01N 32°21' W 090°57'0 0.2
2017-Oct-14 05:31N 32°21' W 090°57'1 2.8
2017-Oct-14 05:00N 32°21' W 090°55'  
2017-Oct-11 18:25N 32°20' W 090°54'0 0.7
2017-Oct-11 18:00N 32°20' W 090°54'0 0.8
2017-Oct-11 17:30N 32°20' W 090°54'0 0.0
2017-Oct-11 17:00N 32°20' W 090°54'0 0.0
2017-Oct-11 00:00N 32°20' W 090°54'0 0.2
2017-Oct-10 23:30N 32°20' W 090°54'0 0.0
2017-Oct-10 10:58N 32°20' W 090°54'3 7.4
2017-Oct-10 10:30N 32°23' W 090°53'1 1.4
2017-Oct-10 10:00N 32°23' W 090°53'0 0.0
2017-Oct-10 09:30N 32°23' W 090°53'0 0.0
2017-Oct-10 09:00N 32°23' W 090°53'0 0.0
2017-Oct-10 08:30N 32°23' W 090°53'0 0.0
2017-Oct-10 08:00N 32°23' W 090°53'0 0.9
2017-Oct-10 07:30N 32°23' W 090°54'1 1.8
2017-Oct-10 07:00N 32°23' W 090°53'2 3.0
2017-Oct-10 06:30N 32°21' W 090°53'0 0.4
2017-Oct-10 06:00N 32°21' W 090°53'0 0.0
2017-Oct-10 05:30N 32°21' W 090°53'0 0.0
2017-Oct-10 05:00N 32°21' W 090°53'0 0.0
2017-Oct-10 04:30N 32°21' W 090°53'1 1.5
2017-Oct-10 04:00N 32°21' W 090°53'1 2.3
2017-Oct-10 03:30N 32°20' W 090°54'0 0.0
2017-Oct-10 03:00N 32°20' W 090°54'0 0.0
2017-Oct-10 02:30N 32°20' W 090°54'0 0.0
2017-Oct-10 02:00N 32°20' W 090°54'2 3.5
2017-Oct-10 01:30N 32°18' W 090°55'0 0.2
2017-Oct-10 01:00N 32°18' W 090°55'0 0.0
2017-Oct-10 00:30N 32°18' W 090°55'0 0.0
2017-Oct-10 00:00N 32°18' W 090°55'2 3.3
2017-Oct-09 23:30N 32°20' W 090°54'0 0.0
2017-Oct-09 11:07N 32°20' W 090°54'1 5.8
2017-Oct-09 11:00N 32°20' W 090°54'1 2.0
2017-Oct-09 10:30N 32°21' W 090°53'2 4.8
2017-Oct-09 10:00N 32°19' W 090°54'1 1.9
2017-Oct-09 09:30N 32°18' W 090°55'2 3.9
2017-Oct-09 09:00N 32°20' W 090°54'2 3.8
2017-Oct-09 08:30N 32°22' W 090°53'0 0.1
2017-Oct-09 08:00N 32°22' W 090°53'0 0.0
2017-Oct-09 07:30N 32°22' W 090°53'0 0.0
2017-Oct-09 07:00N 32°22' W 090°53'0 0.0
2017-Oct-09 06:30N 32°22' W 090°53'0 0.0
2017-Oct-09 06:00N 32°22' W 090°53'0 0.0
2017-Oct-09 05:30N 32°22' W 090°53'0 0.0
2017-Oct-09 05:00N 32°22' W 090°53'0 0.1
2017-Oct-09 04:30N 32°22' W 090°53'2 3.0
2017-Oct-09 04:00N 32°20' W 090°54'  

Dump ship's entire track history